Time;durP1;ratioP1;P1;durP2;ratioP2;P2;SDS_P1;SDS_P2;PMS_P1;PMS_P2;Temp;Humidity;BMP_temperature;BMP_pressure;BME280_temperature;BME280_humidity;BME280_pressure;Samples;Min_cycle;Max_cycle;Signal;HPM_P1;HPM_P2
2022/11/29 00:00:58;;;;;;;75.85;31.33;;;10.80;99.90;;;;;;5035218;28;20037;-74
2022/11/29 00:03:25;;;;;;;77.00;32.15;;;10.80;99.90;;;;;;5035243;28;20028;-74
2022/11/29 00:05:52;;;;;;;79.20;32.10;;;10.80;99.90;;;;;;5034947;28;20033;-74
2022/11/29 00:08:19;;;;;;;82.60;33.47;;;10.80;99.90;;;;;;5034888;28;20029;-74
2022/11/29 00:10:44;;;;;;;81.70;31.52;;;10.80;99.90;;;;;;5035106;28;20029;-74
2022/11/29 00:13:10;;;;;;;70.22;29.50;;;10.80;99.90;;;;;;5035454;28;20351;-73
2022/11/29 00:15:37;;;;;;;72.20;30.42;;;10.80;99.90;;;;;;5034780;28;20495;-73
2022/11/29 00:18:03;;;;;;;73.00;30.35;;;10.80;99.90;;;;;;5034328;28;20034;-73
2022/11/29 00:20:29;;;;;;;74.28;30.67;;;10.80;99.90;;;;;;5034758;28;20029;-73
2022/11/29 00:22:55;;;;;;;72.07;29.67;;;10.80;99.90;;;;;;5034633;28;20164;-73
2022/11/29 00:25:21;;;;;;;70.53;29.92;;;10.80;99.90;;;;;;5035145;28;20029;-73
2022/11/29 00:27:46;;;;;;;71.55;29.17;;;10.80;99.90;;;;;;5034781;28;20044;-73
2022/11/29 00:30:12;;;;;;;72.55;28.63;;;10.80;99.90;;;;;;5034788;28;20104;-74
2022/11/29 00:32:38;;;;;;;77.15;31.20;;;10.80;99.90;;;;;;5033405;28;20040;-74
2022/11/29 00:35:04;;;;;;;72.78;30.08;;;10.80;99.90;;;;;;5033513;28;20033;-74
2022/11/29 00:37:30;;;;;;;73.75;29.75;;;10.80;99.90;;;;;;5016769;28;20508;-74
2022/11/29 00:39:55;;;;;;;83.68;31.90;;;10.80;99.90;;;;;;5029722;28;20089;-74
2022/11/29 00:42:21;;;;;;;78.68;31.27;;;10.80;99.90;;;;;;5013629;28;20061;-73
2022/11/29 00:44:46;;;;;;;82.40;32.05;;;10.80;99.90;;;;;;5013547;28;20382;-73
2022/11/29 00:47:12;;;;;;;75.45;30.48;;;10.70;99.90;;;;;;5014713;28;20030;-73
2022/11/29 00:49:38;;;;;;;84.38;33.28;;;10.70;99.90;;;;;;5014921;28;20034;-74
2022/11/29 00:52:03;;;;;;;87.95;34.50;;;10.70;99.90;;;;;;5014773;28;20443;-73
2022/11/29 00:54:29;;;;;;;81.15;31.85;;;10.60;99.90;;;;;;5014854;28;20036;-73
2022/11/29 00:56:55;;;;;;;82.82;32.42;;;10.60;99.90;;;;;;5014542;28;20026;-73
2022/11/29 00:59:21;;;;;;;80.07;31.77;;;10.60;99.90;;;;;;4997489;28;20052;-74
2022/11/29 01:01:46;;;;;;;83.32;32.42;;;10.60;99.90;;;;;;5014066;28;20125;-74
2022/11/29 01:04:12;;;;;;;88.22;34.22;;;10.70;99.90;;;;;;5014419;28;20038;-74
2022/11/29 01:06:38;;;;;;;90.60;33.00;;;10.70;99.90;;;;;;5013514;28;20030;-73
2022/11/29 01:09:04;;;;;;;86.57;32.03;;;10.70;99.90;;;;;;5014625;28;20030;-74
2022/11/29 01:11:30;;;;;;;78.75;30.73;;;10.70;99.90;;;;;;5013128;28;20113;-74
2022/11/29 01:13:59;;;;;;;81.40;31.60;;;10.80;99.90;;;;;;5014612;28;20109;-74
2022/11/29 01:16:26;;;;;;;85.05;31.92;;;10.80;99.90;;;;;;5013904;28;20084;-74
2022/11/29 01:18:52;;;;;;;78.57;30.27;;;10.80;99.90;;;;;;5014224;28;20459;-74
2022/11/29 01:21:20;;;;;;;87.85;31.35;;;10.90;99.90;;;;;;5012966;28;20048;-74
2022/11/29 01:23:47;;;;;;;105.70;39.50;;;10.90;99.90;;;;;;5013871;28;20105;-74
2022/11/29 01:26:19;;;;;;;88.72;35.35;;;10.90;99.90;;;;;;5014134;28;20030;-73
2022/11/29 01:28:48;;;;;;;85.70;33.60;;;10.80;99.90;;;;;;5014149;28;20105;-72
2022/11/29 01:31:25;;;;;;;98.60;37.05;;;10.80;99.90;;;;;;5013645;28;20033;-72
2022/11/29 01:33:57;;;;;;;91.00;34.45;;;10.70;99.90;;;;;;5013252;28;20033;-72
2022/11/29 01:36:23;;;;;;;93.90;35.00;;;10.70;99.90;;;;;;5014086;28;20026;-73
2022/11/29 01:38:49;;;;;;;88.43;35.08;;;10.70;99.90;;;;;;5029276;28;20030;-73
2022/11/29 01:41:21;;;;;;;92.07;34.15;;;10.70;99.90;;;;;;5033940;28;20043;-73
2022/11/29 01:43:58;;;;;;;86.85;33.05;;;10.70;99.90;;;;;;5033490;28;20195;-73
2022/11/29 01:46:24;;;;;;;84.05;31.38;;;10.70;99.90;;;;;;5033612;28;20029;-73
2022/11/29 01:48:53;;;;;;;84.93;33.45;;;10.80;99.90;;;;;;5032509;28;20437;-73
2022/11/29 01:51:19;;;;;;;89.22;35.33;;;10.80;99.90;;;;;;5033754;28;20026;-73
2022/11/29 01:53:45;;;;;;;82.60;31.55;;;10.80;99.90;;;;;;5032383;28;20057;-73
2022/11/29 01:56:15;;;;;;;89.03;36.33;;;10.80;99.90;;;;;;5016085;28;20064;-73
2022/11/29 01:58:43;;;;;;;87.18;33.67;;;10.80;99.90;;;;;;5033403;28;20056;-73
2022/11/29 02:01:09;;;;;;;93.97;36.35;;;10.80;99.90;;;;;;5033558;28;20024;-73
2022/11/29 02:03:35;;;;;;;96.07;35.65;;;10.80;99.90;;;;;;5033739;28;20061;-73
2022/11/29 02:06:03;;;;;;;105.93;38.58;;;10.80;99.90;;;;;;5032628;28;20501;-73
2022/11/29 02:08:36;;;;;;;95.50;35.03;;;10.70;99.90;;;;;;5033393;28;20026;-73
2022/11/29 02:11:14;;;;;;;92.35;34.45;;;10.70;99.90;;;;;;5015836;28;20029;-73
2022/11/29 02:13:50;;;;;;;92.72;32.90;;;10.70;99.90;;;;;;5033380;28;20040;-74
2022/11/29 02:16:35;;;;;;;84.60;32.63;;;10.70;99.90;;;;;;5033321;28;20108;-73
2022/11/29 02:19:38;;;;;;;85.35;32.63;;;10.70;99.90;;;;;;5033368;28;20064;-74
2022/11/29 02:22:09;;;;;;;87.97;32.55;;;10.80;99.90;;;;;;5033018;28;20105;-73
2022/11/29 02:25:12;;;;;;;101.10;35.72;;;10.80;99.90;;;;;;5033063;28;20029;-74
2022/11/29 02:28:14;;;;;;;100.10;36.08;;;10.80;99.90;;;;;;5033292;28;20108;-74
2022/11/29 02:31:21;;;;;;;85.85;32.65;;;10.70;99.90;;;;;;5016099;28;20037;-74
2022/11/29 02:34:25;;;;;;;82.20;31.75;;;10.80;99.90;;;;;;5033256;28;20039;-74
2022/11/29 02:37:15;;;;;;;91.70;32.72;;;10.80;99.90;;;;;;5033734;28;20064;-74
2022/11/29 02:39:41;;;;;;;82.60;32.35;;;10.80;99.90;;;;;;5033182;28;20054;-74
2022/11/29 02:42:18;;;;;;;84.88;31.83;;;10.80;99.90;;;;;;5033411;28;20033;-74
2022/11/29 02:44:53;;;;;;;86.47;33.00;;;10.80;99.90;;;;;;5035085;28;20448;-73
2022/11/29 02:47:21;;;;;;;86.10;32.88;;;10.80;99.90;;;;;;5035442;28;20454;-74
2022/11/29 02:50:12;;;;;;;95.97;35.67;;;10.90;99.90;;;;;;5035311;28;20029;-74
2022/11/29 02:52:59;;;;;;;94.38;33.83;;;10.80;99.90;;;;;;5035521;28;20037;-73
2022/11/29 02:55:42;;;;;;;94.65;34.42;;;10.80;99.90;;;;;;5036908;28;20036;-74
2022/11/29 02:58:14;;;;;;;95.38;35.45;;;10.80;99.90;;;;;;5018827;28;20036;-74
2022/11/29 03:00:49;;;;;;;88.80;33.47;;;10.70;99.90;;;;;;5019097;28;20056;-73
2022/11/29 03:03:23;;;;;;;93.57;34.30;;;10.80;99.90;;;;;;5036688;28;20029;-73
2022/11/29 03:05:52;;;;;;;92.80;35.28;;;10.80;99.90;;;;;;5036476;28;20076;-74
2022/11/29 03:08:29;;;;;;;94.93;34.92;;;10.80;99.90;;;;;;5035977;28;20025;-73
2022/11/29 03:11:11;;;;;;;93.65;34.65;;;10.80;99.90;;;;;;5036331;28;20460;-74
2022/11/29 03:13:37;;;;;;;89.28;34.47;;;10.80;99.90;;;;;;5018810;28;20528;-74
2022/11/29 03:16:27;;;;;;;94.47;35.60;;;10.90;99.90;;;;;;5036423;28;20026;-73
2022/11/29 03:19:26;;;;;;;88.15;34.03;;;10.90;99.90;;;;;;5036541;28;20446;-74
2022/11/29 03:22:06;;;;;;;89.18;34.67;;;10.80;99.90;;;;;;5035832;28;20025;-74
2022/11/29 03:24:49;;;;;;;90.43;34.35;;;10.90;99.90;;;;;;5035380;28;20410;-74
2022/11/29 03:27:27;;;;;;;96.55;34.08;;;10.90;99.90;;;;;;5036027;28;20044;-74
2022/11/29 03:29:57;;;;;;;87.50;33.25;;;10.90;99.90;;;;;;5035717;28;20112;-73
2022/11/29 03:32:31;;;;;;;92.28;35.33;;;10.90;99.90;;;;;;5018340;28;20376;-74
2022/11/29 03:35:16;;;;;;;103.55;39.10;;;10.90;99.90;;;;;;5034367;28;20038;-74
2022/11/29 03:38:01;;;;;;;88.28;35.92;;;10.90;99.90;;;;;;5035871;28;20026;-74
2022/11/29 03:40:50;;;;;;;97.45;34.63;;;10.90;99.90;;;;;;5031101;28;20608;-74
2022/11/29 03:43:25;;;;;;;93.07;34.75;;;10.90;99.90;;;;;;4990621;28;20034;-74
2022/11/29 03:46:09;;;;;;;88.45;34.78;;;10.90;99.90;;;;;;5015922;28;20521;-74
2022/11/29 03:48:53;;;;;;;95.90;36.50;;;10.90;99.90;;;;;;5015814;28;20033;-73
2022/11/29 03:51:57;;;;;;;118.90;41.70;;;10.90;99.90;;;;;;5015763;28;20022;-73
2022/11/29 03:54:36;;;;;;;112.63;38.70;;;10.90;99.90;;;;;;4994031;28;20125;-73
2022/11/29 03:57:02;;;;;;;107.93;39.05;;;10.80;99.90;;;;;;5014663;28;20105;-74
2022/11/29 03:59:49;;;;;;;110.25;38.92;;;10.70;99.90;;;;;;5015612;28;20108;-73
2022/11/29 04:02:33;;;;;;;101.10;36.55;;;10.60;99.90;;;;;;5015292;28;20108;-73
2022/11/29 04:05:24;;;;;;;99.85;35.13;;;10.50;99.90;;;;;;5015585;28;20022;-73
2022/11/29 04:08:14;;;;;;;88.78;33.15;;;10.50;99.90;;;;;;5014577;28;20101;-73
2022/11/29 04:11:14;;;;;;;90.00;33.33;;;10.60;99.90;;;;;;5015106;28;20034;-73
2022/11/29 04:14:17;;;;;;;94.80;33.35;;;10.70;99.90;;;;;;5014394;28;20083;-73
2022/11/29 04:16:55;;;;;;;;;;;10.70;99.90;;;;;;5015754;28;20389;-73
2022/11/29 04:19:57;;;;;;;92.97;33.60;;;10.70;99.90;;;;;;5015238;28;19909;-73
2022/11/29 04:22:23;;;;;;;97.13;34.55;;;10.70;99.90;;;;;;5014671;28;20036;-73
2022/11/29 04:24:51;;;;;;;94.35;33.67;;;10.70;99.90;;;;;;5015105;28;20106;-74
2022/11/29 04:27:48;;;;;;;91.60;32.72;;;10.70;99.90;;;;;;5015076;28;20121;-74
2022/11/29 04:30:18;;;;;;;94.00;35.00;;;10.70;99.90;;;;;;5015522;28;20030;-73
2022/11/29 04:33:26;;;;;;;102.65;36.13;;;10.60;99.90;;;;;;5014572;28;20045;-74
2022/11/29 04:36:29;;;;;;;101.90;36.08;;;10.40;99.90;;;;;;5015100;28;20026;-74
2022/11/29 04:39:12;;;;;;;105.68;36.38;;;10.30;99.90;;;;;;5014377;28;20093;-74
2022/11/29 04:42:03;;;;;;;100.95;35.00;;;10.30;99.90;;;;;;5034911;28;20029;-74
2022/11/29 04:45:06;;;;;;;95.45;34.15;;;10.20;99.90;;;;;;5034497;28;20462;-74
2022/11/29 04:47:50;;;;;;;98.25;33.38;;;10.10;99.90;;;;;;5034493;28;20021;-74
2022/11/29 04:51:03;;;;;;;90.07;31.55;;;10.20;99.90;;;;;;5034414;28;20104;-74
2022/11/29 04:53:54;;;;;;;90.88;32.85;;;10.20;99.90;;;;;;5000693;28;20042;-74
2022/11/29 04:56:39;;;;;;;94.82;31.95;;;10.40;99.90;;;;;;5007411;28;20076;-74
2022/11/29 04:59:35;;;;;;;106.45;35.83;;;10.40;99.90;;;;;;5034344;28;20045;-74
2022/11/29 05:02:39;;;;;;;93.18;33.85;;;10.50;99.90;;;;;;5034221;28;20105;-74
2022/11/29 05:05:23;;;;;;;99.57;34.95;;;10.50;99.90;;;;;;5033871;28;20040;-74
2022/11/29 05:08:10;;;;;;;101.35;35.30;;;10.60;99.90;;;;;;5033330;28;20068;-74
2022/11/29 05:10:58;;;;;;;98.05;35.20;;;10.60;99.90;;;;;;5033127;28;20117;-74
2022/11/29 05:13:49;;;;;;;117.53;37.88;;;10.60;99.90;;;;;;5034303;28;20033;-74
2022/11/29 05:16:40;;;;;;;104.95;36.00;;;10.60;99.90;;;;;;5034068;28;20040;-74
2022/11/29 05:19:32;;;;;;;96.55;33.72;;;10.60;99.90;;;;;;5034329;28;20033;-74
2022/11/29 05:22:28;;;;;;;91.55;32.38;;;10.60;99.90;;;;;;5033916;28;20025;-74
2022/11/29 05:25:31;;;;;;;95.55;34.00;;;10.60;99.90;;;;;;5033889;28;20026;-74
2022/11/29 05:28:19;;;;;;;87.85;31.42;;;10.70;99.90;;;;;;5033853;28;20156;-74
2022/11/29 05:30:54;;;;;;;91.78;31.23;;;10.70;99.90;;;;;;5033872;28;20026;-74
2022/11/29 05:33:53;;;;;;;93.25;32.17;;;10.70;99.90;;;;;;5033681;28;20029;-74
2022/11/29 05:36:42;;;;;;;86.78;30.70;;;10.80;99.90;;;;;;5033691;28;20117;-74
2022/11/29 05:39:26;;;;;;;99.07;33.10;;;10.80;99.90;;;;;;5031399;28;21207;-73
2022/11/29 05:42:06;;;;;;;94.03;33.13;;;10.80;99.90;;;;;;5033396;28;20037;-74
2022/11/29 05:44:52;;;;;;;89.00;31.60;;;10.80;99.90;;;;;;5033451;28;20059;-74
2022/11/29 05:47:27;;;;;;;104.40;34.95;;;10.80;99.90;;;;;;5033983;28;20108;-75
2022/11/29 05:50:20;;;;;;;94.50;33.67;;;10.80;99.90;;;;;;5033349;28;20090;-74
2022/11/29 05:53:03;;;;;;;98.40;33.38;;;10.80;99.90;;;;;;5033513;28;20033;-75
2022/11/29 05:55:44;;;;;;;96.45;33.30;;;10.90;99.90;;;;;;5033718;28;20115;-75
2022/11/29 05:58:13;;;;;;;94.22;33.10;;;10.90;99.90;;;;;;5033518;28;20029;-74
2022/11/29 06:00:52;;;;;;;97.75;33.40;;;10.90;99.90;;;;;;5033412;28;20072;-75
2022/11/29 06:03:30;;;;;;;102.28;33.38;;;10.90;99.90;;;;;;5033145;28;20060;-74
2022/11/29 06:06:07;;;;;;;114.10;33.65;;;10.90;99.90;;;;;;5033359;28;20104;-75
2022/11/29 06:09:13;;;;;;;95.70;33.22;;;10.90;99.90;;;;;;5033366;28;20496;-74
2022/11/29 06:11:51;;;;;;;94.38;33.92;;;10.80;99.90;;;;;;5003408;28;20486;-74
2022/11/29 06:14:30;;;;;;;105.53;33.83;;;10.80;99.90;;;;;;5033080;28;20556;-73
2022/11/29 06:17:34;;;;;;;100.20;31.55;;;10.80;99.90;;;;;;5016418;28;20037;-73
2022/11/29 06:20:13;;;;;;;;;;;10.70;99.90;;;;;;5036784;28;20414;-73
2022/11/29 06:22:50;;;;;;;81.38;29.48;;;10.70;99.90;;;;;;5035813;28;19909;-73
2022/11/29 06:25:25;;;;;;;88.15;31.15;;;10.70;99.90;;;;;;5036729;28;20441;-73
2022/11/29 06:28:39;;;;;;;82.03;29.83;;;10.70;99.90;;;;;;5037008;28;20052;-74
2022/11/29 06:31:19;;;;;;;81.78;29.30;;;10.70;99.90;;;;;;5018386;28;20080;-73
2022/11/29 06:34:04;;;;;;;82.50;28.48;;;10.70;99.90;;;;;;5036950;28;20025;-73
2022/11/29 06:36:55;;;;;;;81.55;27.90;;;10.60;99.90;;;;;;5019243;28;20025;-73
2022/11/29 06:39:21;;;;;;;74.07;27.38;;;10.70;99.90;;;;;;5036606;28;20026;-73
2022/11/29 06:41:47;;;;;;;69.57;25.48;;;10.70;99.90;;;;;;5036899;28;20112;-73
2022/11/29 06:44:14;;;;;;;55.80;22.00;;;10.70;99.90;;;;;;5036908;28;20026;-74
2022/11/29 06:46:52;;;;;;;80.35;25.42;;;10.70;99.90;;;;;;5036499;28;20052;-78
2022/11/29 06:49:29;;;;;;;67.03;25.33;;;10.80;99.90;;;;;;5036394;28;20065;-77
2022/11/29 06:52:33;;;;;;;70.43;26.88;;;10.80;99.90;;;;;;5036048;28;20474;-78
2022/11/29 06:55:48;;;;;;;69.50;26.23;;;10.80;99.90;;;;;;4975243;28;20045;-77
2022/11/29 06:58:48;;;;;;;63.42;24.55;;;10.90;99.90;;;;;;4954288;28;20034;-76
2022/11/29 07:01:32;;;;;;;51.78;20.48;;;10.90;99.90;;;;;;5036044;28;20033;-78
2022/11/29 07:04:19;;;;;;;61.72;24.02;;;11.00;99.90;;;;;;5036227;28;20034;-76
2022/11/29 07:06:45;;;;;;;66.25;25.33;;;11.00;99.90;;;;;;5036818;28;20399;-78
2022/11/29 07:09:14;;;;;;;76.60;26.98;;;11.00;99.90;;;;;;5036233;28;20025;-75
2022/11/29 07:11:40;;;;;;;74.68;26.30;;;11.00;99.90;;;;;;5035762;28;20075;-75
2022/11/29 07:14:06;;;;;;;67.82;25.55;;;11.00;99.90;;;;;;5036354;28;20155;-77
2022/11/29 07:16:41;;;;;;;56.65;22.63;;;11.00;99.90;;;;;;5035577;28;20052;-79
2022/11/29 07:19:32;;;;;;;52.53;21.63;;;10.90;99.90;;;;;;5035489;28;20034;-78
2022/11/29 07:22:08;;;;;;;63.67;24.00;;;10.90;99.90;;;;;;5035742;28;20441;-77
2022/11/29 07:25:08;;;;;;;60.20;22.52;;;10.90;99.90;;;;;;5036120;28;20047;-78
2022/11/29 07:27:44;;;;;;;79.22;26.55;;;11.00;99.90;;;;;;5037158;28;20108;-78
2022/11/29 07:30:12;;;;;;;51.50;21.08;;;11.00;99.90;;;;;;5034650;28;20033;-78
2022/11/29 07:32:56;;;;;;;58.30;22.27;;;10.90;99.90;;;;;;5035760;28;20033;-77
2022/11/29 07:35:31;;;;;;;57.10;22.63;;;11.00;99.90;;;;;;5034512;28;20033;-78
2022/11/29 07:38:09;;;;;;;52.63;20.83;;;10.90;99.90;;;;;;5036013;28;20033;-78
2022/11/29 07:40:54;;;;;;;57.92;22.70;;;10.90;99.90;;;;;;5035705;28;20052;-77
2022/11/29 07:43:31;;;;;;;57.88;23.17;;;10.90;99.90;;;;;;5035179;28;20484;-79
2022/11/29 07:45:58;;;;;;;57.92;21.63;;;10.90;99.90;;;;;;5035316;28;20477;-78
2022/11/29 07:48:25;;;;;;;55.22;22.42;;;11.00;99.90;;;;;;5035633;28;20025;-77
2022/11/29 07:50:52;;;;;;;60.65;22.70;;;11.00;99.90;;;;;;5035811;28;20026;-76
2022/11/29 07:53:20;;;;;;;59.42;23.63;;;11.00;99.90;;;;;;5033961;28;20085;-77
2022/11/29 07:55:47;;;;;;;54.58;22.52;;;11.00;99.90;;;;;;5017848;28;20030;-76
2022/11/29 07:58:14;;;;;;;56.78;22.58;;;11.00;99.90;;;;;;5017841;28;20021;-76
2022/11/29 08:00:43;;;;;;;50.78;21.05;;;11.00;99.90;;;;;;5035087;28;20025;-77
2022/11/29 08:03:09;;;;;;;50.17;20.85;;;11.00;99.90;;;;;;5033699;28;20029;-76
2022/11/29 08:05:38;;;;;;;58.92;23.67;;;11.00;99.90;;;;;;5035242;28;20072;-76
2022/11/29 08:08:05;;;;;;;55.88;23.60;;;11.10;99.90;;;;;;5035150;28;20022;-77
2022/11/29 08:10:31;;;;;;;52.00;22.02;;;11.10;99.90;;;;;;5035308;28;20047;-77
2022/11/29 08:12:57;;;;;;;52.05;20.88;;;11.00;99.90;;;;;;5017384;28;20041;-76
2022/11/29 08:15:24;;;;;;;47.97;19.90;;;11.10;99.90;;;;;;5017079;28;20037;-77
2022/11/29 08:17:50;;;;;;;45.67;20.58;;;11.10;99.90;;;;;;5034953;28;20523;-76
2022/11/29 08:20:16;;;;;;;57.90;23.10;;;11.10;99.90;;;;;;5035084;28;20021;-76
2022/11/29 08:22:42;;;;;;;50.80;20.85;;;11.20;99.90;;;;;;5033379;28;20033;-77
2022/11/29 08:25:08;;;;;;;56.95;22.48;;;11.20;99.90;;;;;;5034468;28;20407;-77
2022/11/29 08:27:35;;;;;;;47.58;19.92;;;11.20;99.90;;;;;;5034986;28;20029;-76
2022/11/29 08:30:01;;;;;;;45.88;19.20;;;11.30;99.90;;;;;;5034775;28;20482;-78
2022/11/29 08:32:27;;;;;;;58.10;22.60;;;11.30;99.90;;;;;;5016662;28;20037;-79
2022/11/29 08:34:53;;;;;;;47.60;20.92;;;11.30;99.90;;;;;;5034543;28;20069;-79
2022/11/29 08:37:18;;;;;;;47.58;21.25;;;11.30;99.90;;;;;;5017067;28;20417;-78
2022/11/29 08:39:44;;;;;;;46.58;20.52;;;11.30;99.90;;;;;;5029694;28;20509;-79
2022/11/29 08:42:10;;;;;;;42.20;18.17;;;11.20;99.90;;;;;;5013169;28;20040;-78
2022/11/29 08:44:35;;;;;;;46.30;19.70;;;11.20;99.90;;;;;;5029953;28;20079;-77
2022/11/29 08:50:00;;;;;;;40.65;17.25;;;11.10;99.90;;;;;;5014163;28;20092;-77
2022/11/29 08:55:20;;;;;;;46.10;18.45;;;11.00;99.90;;;;;;5014178;28;20092;-80
2022/11/29 08:57:47;;;;;;;43.47;17.55;;;11.00;99.90;;;;;;5029478;28;20030;-77
2022/11/29 09:00:14;;;;;;;43.97;18.23;;;11.10;99.90;;;;;;5014399;28;20113;-78
2022/11/29 09:02:39;;;;;;;34.88;15.88;;;11.10;99.90;;;;;;5014670;28;20041;-78
2022/11/29 09:05:07;;;;;;;45.05;18.50;;;11.10;99.90;;;;;;5014038;28;20026;-79
2022/11/29 09:07:32;;;;;;;37.28;15.43;;;11.10;99.90;;;;;;4997751;28;20104;-78
2022/11/29 09:10:03;;;;;;;34.38;14.98;;;11.20;99.90;;;;;;5012968;28;20036;-78
2022/11/29 09:12:30;;;;;;;38.75;16.60;;;11.10;99.90;;;;;;5013514;28;20057;-78
2022/11/29 09:14:56;;;;;;;39.22;16.55;;;11.10;99.90;;;;;;5013459;28;20030;-78
2022/11/29 09:17:22;;;;;;;33.28;14.68;;;11.10;99.90;;;;;;5013042;28;20466;-78
2022/11/29 09:19:47;;;;;;;34.67;14.55;;;11.00;99.90;;;;;;5012834;28;20030;-76
2022/11/29 09:22:13;;;;;;;38.35;15.27;;;11.00;99.90;;;;;;4996923;28;20489;-75
2022/11/29 09:24:38;;;;;;;40.88;17.25;;;10.90;99.90;;;;;;5013555;28;20030;-75
2022/11/29 09:27:05;;;;;;;40.08;16.38;;;10.90;99.90;;;;;;5014235;28;20427;-75
2022/11/29 09:29:31;;;;;;;37.80;15.90;;;10.80;99.90;;;;;;5013866;28;20037;-76
2022/11/29 09:31:56;;;;;;;39.90;15.32;;;10.80;99.90;;;;;;4996272;28;20458;-75
2022/11/29 09:34:22;;;;;;;39.15;15.77;;;10.80;99.90;;;;;;5012738;28;20034;-75
2022/11/29 09:36:47;;;;;;;36.05;16.00;;;10.80;99.90;;;;;;5013671;28;20084;-77
2022/11/29 09:39:13;;;;;;;41.80;16.48;;;10.80;99.90;;;;;;5013571;28;20026;-77
2022/11/29 09:41:51;;;;;;;38.75;16.52;;;10.80;99.90;;;;;;5034006;28;20462;-77
2022/11/29 09:44:26;;;;;;;38.45;15.65;;;10.80;99.90;;;;;;5033738;28;20088;-77
2022/11/29 09:46:59;;;;;;;40.85;15.93;;;10.70;99.90;;;;;;5032366;28;20441;-77
2022/11/29 09:49:27;;;;;;;;;;;10.80;99.90;;;;;;5033003;28;20473;-77
2022/11/29 09:51:53;;;;;;;32.25;14.60;;;10.80;99.90;;;;;;5032002;28;19909;-77
2022/11/29 09:54:30;;;;;;;35.53;14.52;;;10.70;99.90;;;;;;5035151;28;20105;-77
2022/11/29 09:56:56;;;;;;;38.10;15.77;;;10.80;99.90;;;;;;5036557;28;20060;-77
2022/11/29 09:59:31;;;;;;;36.28;15.40;;;10.80;99.90;;;;;;5036339;28;20026;-77
2022/11/29 10:02:38;;;;;;;32.42;14.88;;;10.80;99.90;;;;;;5020177;28;20081;-77
2022/11/29 10:05:25;;;;;;;31.70;15.38;;;10.80;99.90;;;;;;5020336;28;20037;-77
2022/11/29 10:08:08;;;;;;;37.03;16.42;;;10.80;99.90;;;;;;5037465;28;20025;-77
2022/11/29 10:10:45;;;;;;;;;;;10.70;99.90;;;;;;5037869;28;20029;-77
2022/11/29 10:13:32;;;;;;;39.53;16.40;;;10.80;99.90;;;;;;5037113;28;20016;-74
2022/11/29 10:16:18;;;;;;;37.28;16.08;;;10.80;99.90;;;;;;5037165;28;20037;-76
2022/11/29 10:18:48;;;;;;;38.70;16.17;;;10.80;99.90;;;;;;5037188;28;20462;-76
2022/11/29 10:21:20;;;;;;;38.95;16.25;;;10.80;99.90;;;;;;5037412;28;20021;-75
2022/11/29 10:23:49;;;;;;;45.03;17.27;;;10.80;99.90;;;;;;5036804;28;20466;-75
2022/11/29 10:26:16;;;;;;;34.05;15.60;;;10.90;99.90;;;;;;5037045;28;20031;-74
2022/11/29 10:28:44;;;;;;;34.20;14.82;;;10.90;99.90;;;;;;5036943;28;20021;-76
2022/11/29 10:31:42;;;;;;;35.40;17.02;;;10.90;99.90;;;;;;5036958;28;20524;-75
2022/11/29 10:34:14;;;;;;;41.65;15.57;;;11.00;99.90;;;;;;5030503;28;20366;-75
2022/11/29 10:36:45;;;;;;;34.15;13.65;;;11.00;99.90;;;;;;5037004;28;20100;-76
2022/11/29 10:39:19;;;;;;;29.02;13.57;;;11.00;99.90;;;;;;5018591;28;20132;-75
2022/11/29 10:41:45;;;;;;;31.85;14.07;;;11.00;99.90;;;;;;5036675;28;20052;-76
2022/11/29 10:44:13;;;;;;;36.28;13.73;;;11.10;99.90;;;;;;5018947;28;20021;-76
2022/11/29 10:46:39;;;;;;;36.03;15.98;;;11.10;99.90;;;;;;5036682;28;20112;-76
2022/11/29 10:49:14;;;;;;;30.55;13.18;;;11.10;99.90;;;;;;5036595;28;20029;-75
2022/11/29 10:51:40;;;;;;;36.33;15.05;;;11.10;99.90;;;;;;5036599;28;20132;-75
2022/11/29 10:54:36;;;;;;;30.83;14.50;;;11.10;99.90;;;;;;5035478;28;20086;-75
2022/11/29 10:57:12;;;;;;;26.15;13.63;;;11.10;99.90;;;;;;5036549;28;20041;-76
2022/11/29 10:59:37;;;;;;;31.42;14.43;;;11.10;99.90;;;;;;5035653;28;20029;-75
2022/11/29 11:02:05;;;;;;;27.92;13.32;;;11.20;99.90;;;;;;5035357;28;20489;-75
2022/11/29 11:04:41;;;;;;;29.35;13.63;;;11.20;99.90;;;;;;5034746;28;20029;-75
2022/11/29 11:07:23;;;;;;;31.73;14.50;;;11.20;99.90;;;;;;5019620;28;20407;-75
2022/11/29 11:09:52;;;;;;;26.63;11.82;;;11.20;99.90;;;;;;5035330;28;20036;-75
2022/11/29 11:12:26;;;;;;;32.78;14.50;;;11.20;99.90;;;;;;5036016;28;20416;-75
2022/11/29 11:15:13;;;;;;;28.15;12.90;;;11.20;99.90;;;;;;5036502;28;20029;-78
2022/11/29 11:17:41;;;;;;;28.95;13.60;;;11.30;99.90;;;;;;5036021;28;20025;-76
2022/11/29 11:20:20;;;;;;;35.20;14.38;;;11.30;99.90;;;;;;5034830;28;20112;-77
2022/11/29 11:23:04;;;;;;;34.03;14.60;;;11.30;99.90;;;;;;5018043;28;20033;-75
2022/11/29 11:25:33;;;;;;;32.60;14.48;;;11.20;99.90;;;;;;5018377;28;20029;-75
2022/11/29 11:28:21;;;;;;;27.55;12.48;;;11.30;99.90;;;;;;5035817;28;20485;-75
2022/11/29 11:30:57;;;;;;;27.25;11.68;;;11.30;99.90;;;;;;5035411;28;20040;-75
2022/11/29 11:33:42;;;;;;;33.33;14.48;;;11.30;99.90;;;;;;5035400;28;20036;-75
2022/11/29 11:36:11;;;;;;;29.75;13.15;;;11.30;99.90;;;;;;5035680;28;20119;-75
2022/11/29 11:39:01;;;;;;;26.98;12.60;;;11.30;99.90;;;;;;5035739;28;20136;-75
2022/11/29 11:44:33;;;;;;;28.65;13.02;;;11.30;99.90;;;;;;5016288;28;20075;-75
2022/11/29 11:47:00;;;;;;;29.40;13.95;;;11.30;99.90;;;;;;5004913;28;20070;-74
2022/11/29 11:49:30;;;;;;;32.40;13.02;;;11.30;99.90;;;;;;5014385;28;20026;-75
2022/11/29 11:51:58;;;;;;;30.13;13.00;;;11.30;99.90;;;;;;5015622;28;20025;-75
2022/11/29 11:54:24;;;;;;;25.00;11.85;;;11.40;99.90;;;;;;5031516;28;20033;-76
2022/11/29 11:56:51;;;;;;;34.78;14.57;;;11.50;99.90;;;;;;5015428;28;20084;-75
2022/11/29 11:59:25;;;;;;;28.42;13.38;;;11.40;99.90;;;;;;5014393;28;20030;-76
2022/11/29 12:01:52;;;;;;;35.40;14.45;;;11.40;99.90;;;;;;5031537;28;20030;-76
2022/11/29 12:04:23;;;;;;;33.55;14.23;;;11.40;99.90;;;;;;5031140;28;20040;-76
2022/11/29 12:06:52;;;;;;;27.98;12.68;;;11.40;99.90;;;;;;5015627;28;20487;-76
2022/11/29 12:09:29;;;;;;;29.35;12.40;;;11.40;99.90;;;;;;5015387;28;20467;-75
2022/11/29 12:12:10;;;;;;;34.88;14.35;;;11.40;99.90;;;;;;5015567;28;20034;-75
2022/11/29 12:14:39;;;;;;;19.52;9.38;;;11.50;99.90;;;;;;5015360;28;20034;-76
2022/11/29 12:17:38;;;;;;;30.90;13.85;;;11.60;99.90;;;;;;5014603;28;20033;-76
2022/11/29 12:20:39;;;;;;;37.33;15.70;;;11.60;99.90;;;;;;5030757;28;20077;-76
2022/11/29 12:23:18;;;;;;;31.70;14.52;;;11.40;99.90;;;;;;5015551;28;20022;-76
2022/11/29 12:25:48;;;;;;;33.15;14.85;;;11.40;99.90;;;;;;5014554;28;20418;-76
2022/11/29 12:28:16;;;;;;;33.22;14.40;;;11.50;99.90;;;;;;5030866;28;20129;-76
2022/11/29 12:31:14;;;;;;;37.55;15.23;;;11.40;99.90;;;;;;5013860;28;20026;-76
2022/11/29 12:34:06;;;;;;;30.25;13.98;;;11.50;99.90;;;;;;4974373;28;20046;-76
2022/11/29 12:36:52;;;;;;;41.72;16.05;;;11.50;99.90;;;;;;4991711;28;20426;-76
2022/11/29 12:39:45;;;;;;;42.63;16.05;;;11.50;99.90;;;;;;5016543;28;20466;-76
2022/11/29 12:42:24;;;;;;;33.40;12.93;;;11.40;99.90;;;;;;5017263;28;20036;-76
2022/11/29 12:44:56;;;;;;;32.42;13.95;;;11.50;99.90;;;;;;5034459;28;20068;-76
2022/11/29 12:47:21;;;;;;;39.50;15.60;;;11.50;99.90;;;;;;5033802;28;20033;-76
2022/11/29 12:50:11;;;;;;;35.60;14.15;;;11.60;99.90;;;;;;5034153;28;20393;-76
2022/11/29 12:52:54;;;;;;;39.10;15.70;;;11.60;99.90;;;;;;5034870;28;20037;-76
2022/11/29 12:55:43;;;;;;;35.25;15.88;;;11.60;99.90;;;;;;5034769;28;20048;-76
2022/11/29 12:58:27;;;;;;;44.75;17.63;;;11.60;99.90;;;;;;5033543;28;20125;-76
2022/11/29 13:01:10;;;;;;;33.90;14.63;;;11.50;99.90;;;;;;5033539;28;20520;-76
2022/11/29 13:03:51;;;;;;;32.42;13.80;;;11.40;99.90;;;;;;5034073;28;20036;-76
2022/11/29 13:06:37;;;;;;;39.90;16.77;;;11.50;99.90;;;;;;5016367;28;20029;-79
2022/11/29 13:09:34;;;;;;;36.33;13.82;;;11.50;99.90;;;;;;5033338;28;20187;-80
2022/11/29 13:12:12;;;;;;;36.75;14.40;;;11.50;99.90;;;;;;5034298;28;20032;-79
2022/11/29 13:15:08;;;;;;;47.70;17.60;;;11.60;99.90;;;;;;5034253;28;20128;-78
2022/11/29 13:17:57;;;;;;;35.80;15.00;;;11.60;99.90;;;;;;5033695;28;20080;-77
2022/11/29 13:20:33;;;;;;;34.25;14.35;;;11.60;99.90;;;;;;5032915;28;20470;-79
2022/11/29 13:23:14;;;;;;;37.13;15.35;;;11.60;99.90;;;;;;5032912;28;20359;-77
2022/11/29 13:25:43;;;;;;;30.83;13.27;;;11.60;99.90;;;;;;5032591;28;20035;-76